createdAt,value
2023-05-01T00:02:53.028Z,9.40
2023-05-01T00:06:04.947Z,9.35
2023-05-01T00:09:07.697Z,9.36
2023-05-01T00:12:11.637Z,9.34
2023-05-01T00:15:14.274Z,9.39
2023-05-01T00:18:17.267Z,9.43
2023-05-01T00:21:20.363Z,9.51
2023-05-01T00:24:24.153Z,9.57
2023-05-01T00:27:27.382Z,9.55
2023-05-01T00:30:32.500Z,9.54
2023-05-01T00:33:35.596Z,9.48
2023-05-01T00:36:38.648Z,9.43
2023-05-01T00:39:41.585Z,9.42
2023-05-01T00:42:44.642Z,9.33
2023-05-01T00:45:47.481Z,9.28
2023-05-01T00:48:50.536Z,9.21
2023-05-01T00:51:54.291Z,9.10
2023-05-01T00:54:58.751Z,9.05
2023-05-01T00:58:02.286Z,8.97
2023-05-01T01:01:05.510Z,8.91
2023-05-01T01:04:08.492Z,8.88
2023-05-01T01:07:36.983Z,8.84
2023-05-01T01:10:58.664Z,8.79
2023-05-01T01:14:13.785Z,8.77
2023-05-01T01:17:38.044Z,8.76
2023-05-01T01:20:53.857Z,8.74
2023-05-01T01:24:05.493Z,8.68
2023-05-01T01:27:32.847Z,8.63
2023-05-01T01:31:05.060Z,8.57
2023-05-01T01:34:21.049Z,8.57
2023-05-01T01:37:43.331Z,8.54
2023-05-01T01:41:01.290Z,8.51
2023-05-01T01:44:23.251Z,8.42
2023-05-01T01:47:33.105Z,8.37
2023-05-01T01:50:38.953Z,8.31
2023-05-01T01:53:46.769Z,8.23
2023-05-01T01:56:51.103Z,8.18
2023-05-01T01:59:55.593Z,8.13
2023-05-01T02:03:01.410Z,8.11
2023-05-01T02:06:06.745Z,8.09
2023-05-01T02:09:12.479Z,8.10
2023-05-01T02:12:17.583Z,8.13
2023-05-01T02:15:21.326Z,8.20
2023-05-01T02:18:28.819Z,8.43
2023-05-01T02:21:37.497Z,8.54
2023-05-01T02:24:43.894Z,8.62
2023-05-01T02:28:07.419Z,8.71
2023-05-01T02:31:11.096Z,8.76
2023-05-01T02:34:14.494Z,8.77
2023-05-01T02:37:17.994Z,8.74
2023-05-01T02:40:21.950Z,8.90
2023-05-01T02:43:28.145Z,8.99
2023-05-01T02:46:35.234Z,9.08
2023-05-01T02:49:41.014Z,9.14
2023-05-01T02:52:45.071Z,9.13
2023-05-01T02:55:50.434Z,9.19
2023-05-01T02:58:53.576Z,9.22
2023-05-01T03:01:56.926Z,9.28
2023-05-01T03:04:59.489Z,9.25
2023-05-01T03:08:02.743Z,9.28
2023-05-01T03:11:06.980Z,9.30
2023-05-01T03:14:11.308Z,9.22
2023-05-01T03:17:14.173Z,9.16
2023-05-01T03:20:17.726Z,9.07
2023-05-01T03:23:21.309Z,9.01
2023-05-01T03:26:24.682Z,8.89
2023-05-01T03:29:27.876Z,8.72
2023-05-01T03:32:31.061Z,8.58
2023-05-01T03:35:33.916Z,8.50
2023-05-01T03:38:37.192Z,8.46
2023-05-01T03:41:47.756Z,8.46
2023-05-01T03:44:52.585Z,8.45
2023-05-01T03:47:55.295Z,8.38
2023-05-01T03:50:58.328Z,8.40
2023-05-01T03:54:01.075Z,8.52
2023-05-01T03:57:06.633Z,8.49
2023-05-01T04:00:11.831Z,8.48
2023-05-01T04:03:17.906Z,8.49
2023-05-01T04:06:22.919Z,8.42
2023-05-01T04:09:26.158Z,8.36
2023-05-01T04:12:29.049Z,8.40
2023-05-01T04:15:31.608Z,8.59
2023-05-01T04:18:34.529Z,8.57
2023-05-01T04:21:37.356Z,8.59
2023-05-01T04:24:40.407Z,8.64
2023-05-01T04:27:43.029Z,8.70
2023-05-01T04:30:47.153Z,8.75
2023-05-01T04:33:49.890Z,8.82
2023-05-01T04:36:52.957Z,8.93
2023-05-01T04:39:56.924Z,8.99
2023-05-01T04:43:00.573Z,9.09
2023-05-01T04:46:04.665Z,9.25
2023-05-01T04:49:09.417Z,9.35
2023-05-01T04:52:12.579Z,9.54
2023-05-01T04:55:16.611Z,9.59
2023-05-01T04:58:20.505Z,9.74
2023-05-01T05:01:24.451Z,9.90
2023-05-01T05:04:28.141Z,9.98
2023-05-01T05:07:31.526Z,10.19
2023-05-01T05:10:36.991Z,10.19
2023-05-01T05:13:40.706Z,10.30
2023-05-01T05:16:45.011Z,10.47
2023-05-01T05:19:48.161Z,10.66
2023-05-01T05:22:50.823Z,10.81
2023-05-01T05:25:53.800Z,10.82
2023-05-01T05:28:56.545Z,10.98
2023-05-01T05:31:59.833Z,11.12
2023-05-01T05:35:03.042Z,11.27
2023-05-01T05:38:06.215Z,11.39
2023-05-01T05:41:09.436Z,11.43
2023-05-01T05:44:12.464Z,11.54
2023-05-01T05:47:15.197Z,11.74
2023-05-01T05:50:18.694Z,11.84
2023-05-01T05:53:24.318Z,11.91
2023-05-01T05:56:28.769Z,12.10
2023-05-01T05:59:31.902Z,12.32
2023-05-01T06:02:38.052Z,12.47
2023-05-01T06:05:41.463Z,12.57
2023-05-01T06:08:46.274Z,12.69
2023-05-01T06:11:49.582Z,12.82
2023-05-01T06:14:52.584Z,12.96
2023-05-01T06:17:56.803Z,13.12
2023-05-01T06:21:00.106Z,13.33
2023-05-01T06:24:03.904Z,13.39
2023-05-01T06:27:06.694Z,13.49
2023-05-01T06:30:10.844Z,13.73
2023-05-01T06:33:14.018Z,13.63
2023-05-01T06:36:18.406Z,13.98
2023-05-01T06:39:21.070Z,14.14
2023-05-01T06:42:24.094Z,14.02
2023-05-01T06:45:26.656Z,14.18
2023-05-01T06:48:29.605Z,14.16
2023-05-01T06:51:32.716Z,14.22
2023-05-01T06:54:35.706Z,14.21
2023-05-01T06:57:40.115Z,14.30
2023-05-01T07:00:43.003Z,14.46
2023-05-01T07:03:46.438Z,14.72
2023-05-01T07:06:49.778Z,14.60
2023-05-01T07:09:52.444Z,14.78
2023-05-01T07:12:55.391Z,14.86
2023-05-01T07:16:01.705Z,14.81
2023-05-01T07:19:04.811Z,14.76
2023-05-01T07:22:07.799Z,14.89
2023-05-01T07:25:10.849Z,15.13
2023-05-01T07:28:13.576Z,15.13
2023-05-01T07:31:16.993Z,15.19
2023-05-01T07:34:19.748Z,14.99
2023-05-01T07:37:24.098Z,15.26
2023-05-01T07:40:27.075Z,15.38
2023-05-01T07:43:30.504Z,15.40
2023-05-01T07:46:34.619Z,15.40
2023-05-01T07:49:38.961Z,15.52
2023-05-01T07:52:42.163Z,15.63
2023-05-01T07:55:45.218Z,15.70
2023-05-01T07:58:47.780Z,15.93
2023-05-01T08:01:51.011Z,16.24
2023-05-01T08:04:54.118Z,16.29
2023-05-01T08:07:56.687Z,16.47
2023-05-01T08:10:59.857Z,16.72
2023-05-01T08:14:03.831Z,16.68
2023-05-01T08:17:06.777Z,16.61
2023-05-01T08:20:10.235Z,16.81
2023-05-01T08:23:13.231Z,17.07
2023-05-01T08:26:16.406Z,17.16
2023-05-01T08:29:19.327Z,16.91
2023-05-01T08:32:21.992Z,17.21
2023-05-01T08:35:25.233Z,17.20
2023-05-01T08:38:28.130Z,17.24
2023-05-01T08:41:32.823Z,17.22
2023-05-01T08:44:38.639Z,17.34
2023-05-01T08:47:43.451Z,17.57
2023-05-01T08:50:47.945Z,17.78
2023-05-01T08:53:52.591Z,17.93
2023-05-01T08:56:58.117Z,17.89
2023-05-01T09:00:02.936Z,17.89
2023-05-01T09:03:08.818Z,17.83
2023-05-01T09:06:13.397Z,17.86
2023-05-01T09:09:16.687Z,18.18
2023-05-01T09:12:24.154Z,18.21
2023-05-01T09:15:28.166Z,18.29
2023-05-01T09:18:31.397Z,18.38
2023-05-01T09:21:34.036Z,18.66
2023-05-01T09:24:37.177Z,18.64
2023-05-01T09:27:39.778Z,18.71
2023-05-01T09:30:43.026Z,18.88
2023-05-01T09:33:54.511Z,18.96
2023-05-01T09:36:57.601Z,18.90
2023-05-01T09:40:13.251Z,18.69
2023-05-01T09:43:29.910Z,18.86
2023-05-01T09:46:41.972Z,19.05
2023-05-01T09:49:48.076Z,19.32
2023-05-01T09:52:52.667Z,19.42
2023-05-01T09:56:03.112Z,19.42
2023-05-01T09:59:17.110Z,19.36
2023-05-01T10:02:32.486Z,19.61
2023-05-01T10:05:45.155Z,19.71
2023-05-01T10:08:50.144Z,19.43
2023-05-01T10:11:56.169Z,19.61
2023-05-01T10:15:01.821Z,19.85
2023-05-01T10:18:12.141Z,20.14
2023-05-01T10:21:16.787Z,20.14
2023-05-01T10:24:20.404Z,20.13
2023-05-01T10:27:25.420Z,20.05
2023-05-01T10:30:30.295Z,20.09
2023-05-01T10:33:33.021Z,20.27
2023-05-01T10:36:47.682Z,20.27
2023-05-01T10:39:50.386Z,20.47
2023-05-01T10:43:25.771Z,20.36
2023-05-01T10:46:29.883Z,20.70
2023-05-01T10:50:08.656Z,20.55
2023-05-01T10:53:14.817Z,20.70
2023-05-01T10:56:40.575Z,21.05
2023-05-01T10:59:58.551Z,21.15
2023-05-01T11:03:24.498Z,21.25
2023-05-01T11:06:27.740Z,21.30
2023-05-01T11:09:43.005Z,21.09
2023-05-01T11:12:48.421Z,21.33
2023-05-01T11:15:51.860Z,21.45
2023-05-01T11:18:54.492Z,21.66
2023-05-01T11:21:57.476Z,21.77
2023-05-01T11:25:04.931Z,21.59
2023-05-01T11:28:09.630Z,21.73
2023-05-01T11:31:18.532Z,21.87
2023-05-01T11:34:22.136Z,21.78
2023-05-01T11:37:44.548Z,21.99
2023-05-01T11:40:57.843Z,21.93
2023-05-01T11:44:00.561Z,21.99
2023-05-01T11:47:03.610Z,21.66
2023-05-01T11:50:08.061Z,21.98
2023-05-01T11:53:16.051Z,22.25
2023-05-01T11:56:26.628Z,22.50
2023-05-01T11:59:30.722Z,22.73
2023-05-01T12:02:33.420Z,22.52
2023-05-01T12:05:38.862Z,22.49
2023-05-01T12:08:51.048Z,22.53
2023-05-01T12:11:54.696Z,22.18
2023-05-01T12:14:57.601Z,21.97
2023-05-01T12:18:01.065Z,21.91
2023-05-01T12:21:03.889Z,22.23
2023-05-01T12:24:11.515Z,22.18
2023-05-01T12:27:14.230Z,22.00
2023-05-01T12:30:24.969Z,21.76
2023-05-01T12:33:27.715Z,22.15
2023-05-01T12:36:33.077Z,22.17
2023-05-01T12:39:40.457Z,22.10
2023-05-01T12:42:43.464Z,21.89
2023-05-01T12:45:51.612Z,21.94
2023-05-01T12:48:56.892Z,22.14
2023-05-01T12:52:01.109Z,22.14
2023-05-01T12:55:05.479Z,21.98
2023-05-01T12:58:08.443Z,22.14
2023-05-01T13:01:11.710Z,22.27
2023-05-01T13:04:21.456Z,22.27
2023-05-01T13:07:24.498Z,22.18
2023-05-01T13:10:31.574Z,22.31
2023-05-01T13:13:35.991Z,22.31
2023-05-01T13:16:48.423Z,22.71
2023-05-01T13:20:05.025Z,22.66
2023-05-01T13:23:13.077Z,22.73
2023-05-01T13:26:16.876Z,23.04
2023-05-01T13:29:19.726Z,23.32
2023-05-01T13:32:27.010Z,23.16
2023-05-01T13:35:30.919Z,22.93
2023-05-01T13:38:47.427Z,22.98
2023-05-01T13:41:51.220Z,23.20
2023-05-01T13:44:56.349Z,23.16
2023-05-01T13:47:59.101Z,23.30
2023-05-01T13:51:02.039Z,23.13
2023-05-01T13:54:07.191Z,23.47
2023-05-01T13:57:10.746Z,23.50
2023-05-01T14:00:17.811Z,23.62
2023-05-01T14:03:21.086Z,23.57
2023-05-01T14:06:26.395Z,23.91
2023-05-01T14:09:29.514Z,24.30
2023-05-01T14:12:32.958Z,24.28
2023-05-01T14:15:36.098Z,24.24
2023-05-01T14:18:48.485Z,24.51
2023-05-01T14:21:51.633Z,24.87
2023-05-01T14:24:54.205Z,24.77
2023-05-01T14:27:58.536Z,24.90
2023-05-01T14:31:01.524Z,24.81
2023-05-01T14:34:06.721Z,25.14
2023-05-01T14:37:09.823Z,25.31
2023-05-01T14:40:12.938Z,25.45
2023-05-01T14:43:20.081Z,25.35
2023-05-01T14:46:29.923Z,25.58
2023-05-01T14:49:33.246Z,25.74
2023-05-01T14:52:37.282Z,26.17
2023-05-01T14:55:41.599Z,26.68
2023-05-01T14:58:44.659Z,27.48
2023-05-01T15:01:47.540Z,28.40
2023-05-01T15:04:50.394Z,28.79
2023-05-01T15:08:03.755Z,29.08
2023-05-01T15:11:06.896Z,30.20
2023-05-01T15:14:09.487Z,31.30
2023-05-01T15:17:12.358Z,31.09
2023-05-01T15:20:15.142Z,31.82
2023-05-01T15:23:18.108Z,32.33
2023-05-01T15:26:20.710Z,32.67
2023-05-01T15:29:23.587Z,32.29
2023-05-01T15:32:26.302Z,31.96
2023-05-01T15:35:29.410Z,33.12
2023-05-01T15:38:32.039Z,34.40
2023-05-01T15:41:34.962Z,35.71
2023-05-01T15:44:37.716Z,34.70
2023-05-01T15:47:46.252Z,34.37
2023-05-01T15:50:49.391Z,33.60
2023-05-01T15:53:52.394Z,32.41
2023-05-01T15:56:54.892Z,31.71
2023-05-01T15:59:58.184Z,31.80
2023-05-01T16:03:02.361Z,32.37
2023-05-01T16:06:05.298Z,32.30
2023-05-01T16:09:08.001Z,32.15
2023-05-01T16:12:11.735Z,30.78
2023-05-01T16:15:14.935Z,29.88
2023-05-01T16:18:20.804Z,28.64
2023-05-01T16:21:25.516Z,28.12
2023-05-01T16:24:31.414Z,26.93
2023-05-01T16:27:34.301Z,25.95
2023-05-01T16:30:44.246Z,25.47
2023-05-01T16:33:49.182Z,24.74
2023-05-01T16:36:52.569Z,23.83
2023-05-01T16:39:58.257Z,23.17
2023-05-01T16:43:02.675Z,22.54
2023-05-01T16:46:05.378Z,22.32
2023-05-01T16:49:13.479Z,21.90
2023-05-01T16:52:17.096Z,21.77
2023-05-01T16:55:19.888Z,21.44
2023-05-01T16:58:22.834Z,21.12
2023-05-01T17:01:25.958Z,20.93
2023-05-01T17:04:28.644Z,20.76
2023-05-01T17:07:31.830Z,20.55
2023-05-01T17:10:34.529Z,20.29
2023-05-01T17:13:37.742Z,20.08
2023-05-01T17:16:40.539Z,19.86
2023-05-01T17:19:43.595Z,19.66
2023-05-01T17:22:49.296Z,19.39
2023-05-01T17:25:52.158Z,19.22
2023-05-01T17:28:55.326Z,19.13
2023-05-01T17:31:58.256Z,18.95
2023-05-01T17:35:00.996Z,18.79
2023-05-01T17:38:04.168Z,18.58
2023-05-01T17:41:07.053Z,18.48
2023-05-01T17:44:10.078Z,18.29
2023-05-01T17:47:12.680Z,18.28
2023-05-01T17:50:15.967Z,18.09
2023-05-01T17:53:18.958Z,17.92
2023-05-01T17:56:22.109Z,17.84
2023-05-01T17:59:26.387Z,17.64
2023-05-01T18:02:29.786Z,17.51
2023-05-01T18:05:33.234Z,17.42
2023-05-01T18:08:35.841Z,17.32
2023-05-01T18:11:38.736Z,17.30
2023-05-01T18:14:41.414Z,17.15
2023-05-01T18:17:44.337Z,17.02
2023-05-01T18:20:47.467Z,16.87
2023-05-01T18:23:50.779Z,16.82
2023-05-01T18:26:53.416Z,16.71
2023-05-01T18:29:56.836Z,16.65
2023-05-01T18:32:59.893Z,16.53
2023-05-01T18:36:03.060Z,16.43
2023-05-01T18:39:05.998Z,16.34
2023-05-01T18:42:10.125Z,16.28
2023-05-01T18:45:14.083Z,16.22
2023-05-01T18:48:17.576Z,16.11
2023-05-01T18:51:20.364Z,16.02
2023-05-01T18:54:23.420Z,15.98
2023-05-01T18:57:27.674Z,15.88
2023-05-01T19:00:30.788Z,15.79
2023-05-01T19:03:33.420Z,15.74
2023-05-01T19:06:36.909Z,15.66
2023-05-01T19:09:40.671Z,15.62
2023-05-01T19:12:43.960Z,15.55
2023-05-01T19:15:46.605Z,15.48
2023-05-01T19:18:49.462Z,15.40
2023-05-01T19:21:52.330Z,15.31
2023-05-01T19:24:55.429Z,15.22
2023-05-01T19:27:58.020Z,15.18
2023-05-01T19:31:01.292Z,15.07
2023-05-01T19:34:03.945Z,15.04
2023-05-01T19:37:07.049Z,14.96
2023-05-01T19:40:10.112Z,14.87
2023-05-01T19:43:16.104Z,14.76
2023-05-01T19:46:18.725Z,14.59
2023-05-01T19:49:21.647Z,14.46
2023-05-01T19:52:24.437Z,14.35
2023-05-01T19:55:28.301Z,14.24
2023-05-01T19:58:31.148Z,14.17
2023-05-01T20:01:34.661Z,14.06
2023-05-01T20:04:40.176Z,14.00
2023-05-01T20:07:44.855Z,13.90
2023-05-01T20:10:48.111Z,13.85
2023-05-01T20:13:51.337Z,13.81
2023-05-01T20:16:54.396Z,13.72
2023-05-01T20:19:57.236Z,13.66
2023-05-01T20:23:11.249Z,13.65
2023-05-01T20:26:13.914Z,13.59
2023-05-01T20:29:16.897Z,13.49
2023-05-01T20:32:19.536Z,13.42
2023-05-01T20:35:22.575Z,13.35
2023-05-01T20:38:27.279Z,13.26
2023-05-01T20:41:30.867Z,13.23
2023-05-01T20:44:33.659Z,13.18
2023-05-01T20:47:36.632Z,13.11
2023-05-01T20:50:41.774Z,13.06
2023-05-01T20:53:44.717Z,13.07
2023-05-01T20:56:47.229Z,13.01
2023-05-01T20:59:50.946Z,13.00
2023-05-01T21:02:53.880Z,12.92
2023-05-01T21:06:00.813Z,12.85
2023-05-01T21:09:04.892Z,12.87
2023-05-01T21:12:07.797Z,12.82
2023-05-01T21:15:13.712Z,12.83
2023-05-01T21:18:17.895Z,12.78
2023-05-01T21:21:20.812Z,12.78
2023-05-01T21:24:25.587Z,12.79
2023-05-01T21:27:28.343Z,12.81
2023-05-01T21:30:36.085Z,12.80
2023-05-01T21:33:45.764Z,12.75
2023-05-01T21:36:49.336Z,12.76
2023-05-01T21:39:52.476Z,12.83
2023-05-01T21:42:56.284Z,12.86
2023-05-01T21:45:59.149Z,12.78
2023-05-01T21:49:02.452Z,12.72
2023-05-01T21:52:11.609Z,12.68
2023-05-01T21:55:22.393Z,12.57
2023-05-01T21:58:25.203Z,12.56
2023-05-01T22:01:28.957Z,12.47
2023-05-01T22:04:32.077Z,12.39
2023-05-01T22:07:37.786Z,12.36
2023-05-01T22:10:42.977Z,12.42
2023-05-01T22:13:46.251Z,12.35
2023-05-01T22:16:49.162Z,12.29
2023-05-01T22:19:52.586Z,12.25
2023-05-01T22:22:55.544Z,12.18
2023-05-01T22:26:00.285Z,12.10
2023-05-01T22:29:03.989Z,12.05
2023-05-01T22:32:06.732Z,12.11
2023-05-01T22:35:10.067Z,12.20
2023-05-01T22:38:12.686Z,12.03
2023-05-01T22:41:15.607Z,11.97
2023-05-01T22:44:19.564Z,11.96
2023-05-01T22:47:25.739Z,11.82
2023-05-01T22:50:28.432Z,11.81
2023-05-01T22:53:31.415Z,11.80
2023-05-01T22:56:34.196Z,11.79
2023-05-01T22:59:37.731Z,11.67
2023-05-01T23:02:40.954Z,11.59
2023-05-01T23:05:44.638Z,11.56
2023-05-01T23:08:47.314Z,11.58
2023-05-01T23:11:50.457Z,11.49
2023-05-01T23:14:53.231Z,11.36
2023-05-01T23:17:56.264Z,11.36
2023-05-01T23:20:59.399Z,11.31
2023-05-01T23:24:03.049Z,11.25
2023-05-01T23:27:06.675Z,11.17
2023-05-01T23:30:10.330Z,11.14
2023-05-01T23:33:17.504Z,11.12
2023-05-01T23:36:22.114Z,11.07
2023-05-01T23:39:24.761Z,11.02
2023-05-01T23:42:28.280Z,10.94
2023-05-01T23:45:31.004Z,10.94
2023-05-01T23:48:34.660Z,10.89
2023-05-01T23:51:37.381Z,10.87
2023-05-01T23:54:40.471Z,10.89
2023-05-01T23:57:43.255Z,10.95
